createdAt,value
2019-02-16T00:01:06.023Z,9.20
2019-02-16T00:03:34.169Z,9.13
2019-02-16T00:06:02.345Z,9.10
2019-02-16T00:08:30.618Z,9.67
2019-02-16T00:10:58.759Z,10.00
2019-02-16T00:13:26.929Z,9.23
2019-02-16T00:15:55.073Z,9.13
2019-02-16T00:18:24.848Z,9.67
2019-02-16T00:20:53.869Z,9.73
2019-02-16T00:23:23.484Z,9.47
2019-02-16T00:25:51.748Z,10.90
2019-02-16T00:28:19.920Z,9.80
2019-02-16T00:30:48.198Z,10.77
2019-02-16T00:33:16.341Z,9.23
2019-02-16T00:35:44.522Z,11.73
2019-02-16T00:38:15.740Z,11.37
2019-02-16T00:40:43.876Z,10.80
2019-02-16T00:43:12.061Z,10.50
2019-02-16T00:45:40.195Z,11.07
2019-02-16T00:48:08.651Z,11.30
2019-02-16T00:50:36.785Z,10.90
2019-02-16T00:53:04.926Z,11.13
2019-02-16T00:55:33.068Z,11.90
2019-02-16T00:58:01.592Z,11.30
2019-02-16T01:00:29.755Z,11.60
2019-02-16T01:02:58.708Z,11.63
2019-02-16T01:05:26.880Z,11.87
2019-02-16T01:07:55.036Z,11.40
2019-02-16T01:10:23.185Z,11.33
2019-02-16T01:12:51.357Z,11.23
2019-02-16T01:15:19.504Z,11.90
2019-02-16T01:17:47.640Z,11.20
2019-02-16T01:20:15.816Z,11.70
2019-02-16T01:22:43.961Z,12.37
2019-02-16T01:25:12.100Z,12.07
2019-02-16T01:27:40.396Z,11.57
2019-02-16T01:30:08.913Z,12.30
2019-02-16T01:32:37.128Z,12.13
2019-02-16T01:35:06.418Z,12.37
2019-02-16T01:37:34.626Z,12.20
2019-02-16T01:40:02.985Z,12.03
2019-02-16T01:42:31.208Z,13.10
2019-02-16T01:44:59.400Z,13.33
2019-02-16T01:47:27.533Z,12.93
2019-02-16T01:49:55.721Z,13.37
2019-02-16T01:52:24.058Z,11.67
2019-02-16T01:54:52.441Z,13.00
2019-02-16T01:57:20.673Z,12.90
2019-02-16T01:59:48.860Z,13.27
2019-02-16T02:02:17.042Z,12.03
2019-02-16T02:04:45.268Z,12.97
2019-02-16T02:07:13.463Z,13.50
2019-02-16T02:09:41.658Z,13.57
2019-02-16T02:12:09.890Z,13.43
2019-02-16T02:14:38.079Z,13.83
2019-02-16T02:17:06.266Z,13.73
2019-02-16T02:19:34.492Z,12.67
2019-02-16T02:22:02.684Z,14.93
2019-02-16T02:24:31.257Z,13.53
2019-02-16T02:26:59.481Z,13.83
2019-02-16T02:29:27.671Z,14.00
2019-02-16T02:31:55.868Z,14.73
2019-02-16T02:34:24.751Z,14.93
2019-02-16T02:36:52.951Z,14.23
2019-02-16T02:39:21.155Z,13.43
2019-02-16T02:41:49.376Z,13.00
2019-02-16T02:44:17.568Z,13.20
2019-02-16T02:46:45.761Z,14.10
2019-02-16T02:49:15.617Z,14.47
2019-02-16T02:51:51.777Z,13.93
2019-02-16T02:54:13.651Z,13.93
2019-02-16T02:56:41.888Z,14.60
2019-02-16T02:59:10.235Z,14.03
2019-02-16T03:01:38.437Z,14.33
2019-02-16T03:04:06.665Z,13.47
2019-02-16T03:06:34.860Z,14.43
2019-02-16T03:09:04.619Z,14.37
2019-02-16T03:11:32.843Z,13.40
2019-02-16T03:14:01.036Z,14.67
2019-02-16T03:16:29.235Z,14.07
2019-02-16T03:18:57.883Z,14.77
2019-02-16T03:21:26.083Z,16.20
2019-02-16T03:23:55.827Z,14.87
2019-02-16T03:26:34.650Z,15.97
2019-02-16T03:29:04.488Z,14.33
2019-02-16T03:31:52.629Z,14.97
2019-02-16T03:34:22.474Z,14.87
2019-02-16T03:37:08.703Z,14.90
2019-02-16T03:39:37.679Z,15.77
2019-02-16T03:42:05.866Z,15.97
2019-02-16T03:44:34.090Z,15.17
2019-02-16T03:47:02.297Z,15.17
2019-02-16T03:49:30.487Z,15.07
2019-02-16T03:51:58.711Z,14.50
2019-02-16T03:54:26.907Z,14.23
2019-02-16T03:56:55.100Z,15.40
2019-02-16T03:59:23.320Z,15.27
2019-02-16T04:01:53.935Z,16.40
2019-02-16T04:04:22.374Z,15.63
2019-02-16T04:06:50.601Z,14.53
2019-02-16T04:09:18.804Z,15.23
2019-02-16T04:11:47.155Z,14.57
2019-02-16T04:14:15.615Z,15.47
2019-02-16T04:16:43.779Z,15.83
2019-02-16T04:19:12.154Z,14.63
2019-02-16T04:21:40.346Z,15.17
2019-02-16T04:24:08.560Z,14.60
2019-02-16T04:26:36.735Z,14.43
2019-02-16T04:29:04.949Z,15.27
2019-02-16T04:31:33.073Z,15.30
2019-02-16T04:34:01.229Z,16.40
2019-02-16T04:36:29.410Z,13.67
2019-02-16T04:38:57.688Z,16.40
2019-02-16T04:41:25.832Z,15.83
2019-02-16T04:43:54.001Z,14.53
2019-02-16T04:46:22.148Z,15.80
2019-02-16T04:48:50.316Z,15.00
2019-02-16T04:51:18.481Z,14.23
2019-02-16T04:53:46.624Z,14.37
2019-02-16T04:56:14.766Z,15.70
2019-02-16T04:58:42.940Z,15.93
2019-02-16T05:01:11.077Z,15.27
2019-02-16T05:03:39.221Z,15.20
2019-02-16T05:06:07.406Z,15.63
2019-02-16T05:08:35.540Z,15.53
2019-02-16T05:11:03.697Z,14.43
2019-02-16T05:13:31.866Z,15.77
2019-02-16T05:16:00.012Z,15.07
2019-02-16T05:18:28.166Z,15.37
2019-02-16T05:20:56.337Z,14.47
2019-02-16T05:23:24.809Z,14.97
2019-02-16T05:25:53.095Z,15.03
2019-02-16T05:28:23.864Z,15.83
2019-02-16T05:30:51.983Z,14.00
2019-02-16T05:33:20.114Z,15.30
2019-02-16T05:35:48.354Z,14.87
2019-02-16T05:38:16.494Z,15.10
2019-02-16T05:40:44.637Z,14.83
2019-02-16T05:43:12.808Z,15.30
2019-02-16T05:45:40.945Z,15.17
2019-02-16T05:48:09.388Z,15.03
2019-02-16T05:50:37.563Z,14.53
2019-02-16T05:53:05.701Z,15.73
2019-02-16T05:55:33.852Z,15.17
2019-02-16T05:58:02.052Z,14.83
2019-02-16T06:00:31.560Z,14.67
2019-02-16T06:02:59.728Z,14.43
2019-02-16T06:05:27.886Z,14.60
2019-02-16T06:07:56.028Z,15.20
2019-02-16T06:10:24.175Z,15.60
2019-02-16T06:12:54.816Z,15.47
2019-02-16T06:15:23.997Z,15.00
2019-02-16T06:17:52.152Z,15.17
2019-02-16T06:20:20.324Z,14.87
2019-02-16T06:22:48.470Z,15.27
2019-02-16T06:25:16.650Z,15.00
2019-02-16T06:27:44.942Z,14.90
2019-02-16T06:30:13.469Z,16.65
2019-02-16T06:32:41.737Z,18.57
2019-02-16T06:35:20.360Z,15.97
2019-02-16T06:37:48.529Z,17.33
2019-02-16T06:40:16.704Z,16.63
2019-02-16T06:42:45.239Z,16.10
2019-02-16T06:45:13.378Z,15.40
2019-02-16T06:47:41.520Z,15.50
2019-02-16T06:50:09.691Z,15.83
2019-02-16T06:52:37.830Z,16.27
2019-02-16T06:55:05.969Z,15.67
2019-02-16T06:57:34.224Z,16.07
2019-02-16T07:00:02.377Z,16.03
2019-02-16T07:02:30.867Z,16.13
2019-02-16T07:04:59.044Z,16.57
2019-02-16T07:07:27.184Z,19.90
2019-02-16T07:09:55.327Z,18.07
2019-02-16T07:12:23.501Z,17.13
2019-02-16T07:14:51.633Z,16.70
2019-02-16T07:17:30.367Z,16.67
2019-02-16T07:19:58.577Z,16.10
2019-02-16T07:22:26.717Z,19.67
2019-02-16T07:24:54.899Z,18.07
2019-02-16T07:27:23.049Z,16.43
2019-02-16T07:29:51.321Z,17.97
2019-02-16T07:32:19.492Z,17.83
2019-02-16T07:34:47.780Z,16.57
2019-02-16T07:37:15.934Z,17.63
2019-02-16T07:39:44.102Z,17.77
2019-02-16T07:42:12.243Z,17.30
2019-02-16T07:44:44.842Z,17.00
2019-02-16T07:47:26.893Z,17.30
2019-02-16T07:50:02.605Z,17.10
2019-02-16T07:52:48.668Z,17.20
2019-02-16T07:55:22.834Z,17.03
2019-02-16T07:57:52.645Z,19.40
2019-02-16T08:00:25.349Z,17.60
2019-02-16T08:02:58.013Z,16.40
2019-02-16T08:05:39.897Z,17.17
2019-02-16T08:08:12.721Z,16.90
2019-02-16T08:10:42.836Z,17.57
2019-02-16T08:13:12.621Z,17.43
2019-02-16T08:15:48.228Z,16.90
2019-02-16T08:18:27.053Z,17.80
2019-02-16T08:21:05.656Z,17.40
2019-02-16T08:23:40.353Z,17.83
2019-02-16T08:26:23.464Z,17.53
2019-02-16T08:28:53.290Z,17.60
2019-02-16T08:31:28.871Z,18.53
2019-02-16T08:34:02.518Z,18.37
2019-02-16T08:36:32.332Z,17.73
2019-02-16T08:39:07.960Z,17.70
2019-02-16T08:41:37.789Z,17.43
2019-02-16T08:44:07.570Z,17.53
2019-02-16T08:46:55.349Z,18.23
2019-02-16T08:49:37.325Z,18.03
2019-02-16T08:52:10.239Z,18.23
2019-02-16T08:54:40.025Z,18.70
2019-02-16T08:57:09.801Z,17.97
2019-02-16T08:59:42.421Z,18.60
2019-02-16T09:02:27.405Z,17.10
2019-02-16T09:05:00.239Z,16.97
2019-02-16T09:07:36.317Z,20.97
2019-02-16T09:10:19.129Z,18.17
2019-02-16T09:12:51.669Z,17.90
2019-02-16T09:15:27.551Z,16.80
2019-02-16T09:18:06.426Z,17.13
2019-02-16T09:20:36.288Z,16.83
2019-02-16T09:23:08.996Z,16.73
2019-02-16T09:25:44.992Z,16.73
2019-02-16T09:28:14.776Z,16.37
2019-02-16T09:30:50.668Z,16.80
2019-02-16T09:33:23.127Z,15.77
2019-02-16T09:35:53.008Z,17.50
2019-02-16T09:38:22.810Z,17.20
2019-02-16T09:40:52.593Z,17.07
2019-02-16T09:43:39.036Z,17.90
2019-02-16T09:46:08.884Z,17.50
2019-02-16T09:48:38.757Z,17.07
2019-02-16T09:51:13.009Z,16.37
2019-02-16T09:53:45.461Z,17.20
2019-02-16T09:56:31.902Z,16.83
2019-02-16T09:59:01.817Z,17.67
2019-02-16T10:01:37.685Z,17.03
2019-02-16T10:04:07.466Z,17.83
2019-02-16T10:06:46.314Z,17.63
2019-02-16T10:09:24.812Z,18.00
2019-02-16T10:11:54.645Z,17.63
2019-02-16T10:14:33.471Z,17.07
2019-02-16T10:17:05.036Z,17.67
2019-02-16T10:19:40.417Z,16.67
2019-02-16T10:22:16.192Z,18.50
2019-02-16T10:24:48.515Z,17.50
2019-02-16T10:27:33.732Z,16.80
2019-02-16T10:30:06.676Z,17.40
2019-02-16T10:32:36.456Z,17.50
2019-02-16T10:35:22.833Z,17.63
2019-02-16T10:37:53.953Z,17.60
2019-02-16T10:40:29.734Z,16.80
2019-02-16T10:43:00.976Z,17.00
2019-02-16T10:45:46.069Z,16.13
2019-02-16T10:48:15.857Z,16.53
2019-02-16T10:50:45.643Z,17.43
2019-02-16T10:53:18.620Z,16.30
2019-02-16T10:55:51.612Z,16.23
2019-02-16T10:58:37.885Z,17.57
2019-02-16T11:01:23.864Z,17.00
2019-02-16T11:03:53.689Z,17.57
2019-02-16T11:06:23.480Z,17.37
2019-02-16T11:08:55.771Z,18.03
2019-02-16T11:11:34.873Z,15.77
2019-02-16T11:14:04.713Z,16.90
2019-02-16T11:16:49.604Z,17.13
2019-02-16T11:19:20.745Z,17.30
2019-02-16T11:21:56.672Z,17.33
2019-02-16T11:24:35.504Z,17.43
2019-02-16T11:27:00.733Z,17.93
2019-02-16T11:29:39.316Z,15.97
2019-02-16T11:32:25.455Z,18.50
2019-02-16T11:35:00.812Z,16.43
2019-02-16T11:37:36.150Z,17.33
2019-02-16T11:40:08.276Z,17.07
2019-02-16T11:42:38.076Z,17.50
2019-02-16T11:45:17.916Z,16.77
2019-02-16T11:47:53.441Z,16.57
2019-02-16T11:50:23.259Z,17.73
2019-02-16T11:52:59.086Z,16.77
2019-02-16T11:55:45.316Z,17.73
2019-02-16T11:58:15.118Z,17.23
2019-02-16T12:00:47.797Z,17.73
2019-02-16T12:03:19.166Z,17.63
2019-02-16T12:06:00.841Z,17.33
2019-02-16T12:08:42.561Z,17.70
2019-02-16T12:11:18.282Z,17.27
2019-02-16T12:13:51.125Z,17.60
2019-02-16T12:16:21.817Z,18.33
2019-02-16T12:19:06.741Z,18.07
2019-02-16T12:21:51.853Z,18.60
2019-02-16T12:24:21.677Z,18.60
2019-02-16T12:26:51.793Z,17.47
2019-02-16T12:29:33.142Z,19.50
2019-02-16T12:32:08.735Z,17.60
2019-02-16T12:34:47.455Z,18.73
2019-02-16T12:37:17.246Z,17.80
2019-02-16T12:39:50.524Z,18.17
2019-02-16T12:42:20.329Z,17.67
2019-02-16T12:44:59.090Z,18.10
2019-02-16T12:47:43.562Z,18.77
2019-02-16T12:50:29.957Z,18.20
2019-02-16T12:52:59.773Z,18.50
2019-02-16T12:55:47.830Z,18.10
2019-02-16T12:58:26.473Z,18.83
2019-02-16T13:00:59.604Z,20.30
2019-02-16T13:03:47.457Z,18.07
2019-02-16T13:06:23.101Z,17.70
2019-02-16T13:09:10.962Z,19.27
2019-02-16T13:11:52.988Z,19.30
2019-02-16T13:14:22.804Z,18.53
2019-02-16T13:17:05.028Z,19.27
2019-02-16T13:19:35.207Z,18.87
2019-02-16T13:22:04.988Z,18.27
2019-02-16T13:24:51.372Z,18.53
2019-02-16T13:27:24.508Z,18.90
2019-02-16T13:30:03.022Z,18.90
2019-02-16T13:32:35.317Z,18.73
2019-02-16T13:35:08.416Z,18.93
2019-02-16T13:37:38.734Z,19.37
2019-02-16T13:40:08.841Z,19.33
2019-02-16T13:42:44.555Z,19.37
2019-02-16T13:45:14.338Z,19.20
2019-02-16T13:47:47.158Z,18.10
2019-02-16T13:50:16.968Z,18.97
2019-02-16T13:53:00.966Z,18.23
2019-02-16T13:55:36.069Z,18.47
2019-02-16T13:58:04.987Z,18.80
2019-02-16T14:00:46.646Z,18.60
2019-02-16T14:03:32.836Z,18.13
2019-02-16T14:06:08.165Z,19.07
2019-02-16T14:08:43.945Z,18.83
2019-02-16T14:11:18.398Z,18.57
2019-02-16T14:13:50.924Z,19.57
2019-02-16T14:16:26.773Z,18.13
2019-02-16T14:18:54.958Z,17.60
2019-02-16T14:21:23.071Z,17.83
2019-02-16T14:23:51.252Z,17.60
2019-02-16T14:26:19.526Z,18.20
2019-02-16T14:28:48.587Z,19.60
2019-02-16T14:31:18.716Z,17.60
2019-02-16T14:33:46.891Z,19.37
2019-02-16T14:36:15.030Z,18.53
2019-02-16T14:38:47.811Z,20.03
2019-02-16T14:41:15.952Z,19.13
2019-02-16T14:43:44.101Z,19.63
2019-02-16T14:46:12.273Z,19.77
2019-02-16T14:48:40.534Z,20.00
2019-02-16T14:51:09.141Z,18.77
2019-02-16T14:53:37.385Z,18.80
2019-02-16T14:56:05.520Z,19.47
2019-02-16T14:58:33.671Z,20.17
2019-02-16T15:01:03.913Z,19.60
2019-02-16T15:03:32.085Z,19.27
2019-02-16T15:06:00.299Z,20.17
2019-02-16T15:08:28.493Z,19.90
2019-02-16T15:10:56.632Z,21.03
2019-02-16T15:13:24.780Z,21.13
2019-02-16T15:15:54.861Z,19.83
2019-02-16T15:18:22.751Z,19.60
2019-02-16T15:20:51.021Z,19.33
2019-02-16T15:23:19.200Z,19.57
2019-02-16T15:25:49.407Z,20.27
2019-02-16T15:28:17.561Z,20.60
2019-02-16T15:30:45.754Z,19.77
2019-02-16T15:33:13.956Z,19.90
2019-02-16T15:35:42.221Z,19.60
2019-02-16T15:38:10.765Z,20.30
2019-02-16T15:40:38.912Z,19.40
2019-02-16T15:43:07.053Z,21.67
2019-02-16T15:45:35.226Z,22.13
2019-02-16T15:48:03.366Z,22.90
2019-02-16T15:50:32.998Z,22.30
2019-02-16T15:53:01.171Z,21.40
2019-02-16T15:55:30.957Z,22.20
2019-02-16T15:57:59.336Z,21.57
2019-02-16T16:00:28.508Z,22.60
2019-02-16T16:02:56.664Z,22.27
2019-02-16T16:05:24.890Z,23.37
2019-02-16T16:07:54.721Z,22.63
2019-02-16T16:10:30.570Z,23.00
2019-02-16T16:13:06.482Z,23.13
2019-02-16T16:15:42.397Z,24.03
2019-02-16T16:18:07.725Z,22.70
2019-02-16T16:20:40.325Z,24.10
2019-02-16T16:23:22.244Z,22.83
2019-02-16T16:25:52.182Z,22.30
2019-02-16T16:28:31.954Z,22.70
2019-02-16T16:31:11.626Z,23.53
2019-02-16T16:33:41.544Z,23.00
2019-02-16T16:36:20.224Z,22.60
2019-02-16T16:38:53.097Z,22.97
2019-02-16T16:41:28.757Z,23.23
2019-02-16T16:44:10.526Z,24.17
2019-02-16T16:46:46.037Z,24.47
2019-02-16T16:49:19.997Z,22.67
2019-02-16T16:52:06.525Z,23.07
2019-02-16T16:54:36.425Z,24.20
2019-02-16T16:57:06.239Z,23.97
2019-02-16T16:59:41.982Z,24.87
2019-02-16T17:02:14.337Z,24.10
2019-02-16T17:04:44.151Z,24.77
2019-02-16T17:07:14.087Z,23.67
2019-02-16T17:09:53.153Z,25.27
2019-02-16T17:12:41.098Z,26.53
2019-02-16T17:15:14.004Z,26.17
2019-02-16T17:17:49.652Z,26.60
2019-02-16T17:20:25.486Z,25.17
2019-02-16T17:23:07.574Z,25.60
2019-02-16T17:25:53.965Z,25.20
2019-02-16T17:28:33.037Z,25.50
2019-02-16T17:31:05.352Z,25.90
2019-02-16T17:33:53.598Z,24.80
2019-02-16T17:36:23.374Z,24.80
2019-02-16T17:38:59.197Z,24.20
2019-02-16T17:41:32.135Z,24.43
2019-02-16T17:44:18.208Z,25.90
2019-02-16T17:46:56.808Z,25.10
2019-02-16T17:49:32.578Z,24.70
2019-02-16T17:52:18.701Z,24.60
2019-02-16T17:55:04.756Z,26.10
2019-02-16T17:57:34.541Z,24.97
2019-02-16T18:00:04.900Z,24.60
2019-02-16T18:02:37.857Z,25.80
2019-02-16T18:05:19.686Z,24.43
2019-02-16T18:07:52.508Z,27.07
2019-02-16T18:10:31.601Z,27.77
2019-02-16T18:13:01.415Z,29.33
2019-02-16T18:15:31.192Z,28.13
2019-02-16T18:18:00.981Z,27.17
2019-02-16T18:20:31.560Z,27.40
2019-02-16T18:23:01.343Z,26.90
2019-02-16T18:25:37.109Z,27.60
2019-02-16T18:28:25.197Z,29.20
2019-02-16T18:30:55.011Z,27.30
2019-02-16T18:33:33.637Z,28.80
2019-02-16T18:36:09.693Z,29.07
2019-02-16T18:38:39.486Z,26.83
2019-02-16T18:41:13.178Z,26.50
2019-02-16T18:43:43.143Z,26.77
2019-02-16T18:46:12.995Z,25.07
2019-02-16T18:48:48.938Z,26.33
2019-02-16T18:51:31.306Z,27.30
2019-02-16T18:54:01.140Z,26.47
2019-02-16T18:56:40.004Z,26.20
2019-02-16T18:59:09.846Z,26.07
2019-02-16T19:01:45.522Z,25.10
2019-02-16T19:04:18.130Z,24.97
2019-02-16T19:06:47.921Z,25.60
2019-02-16T19:09:26.674Z,25.93
2019-02-16T19:12:08.635Z,24.93
2019-02-16T19:14:44.144Z,24.80
2019-02-16T19:17:13.974Z,29.20
2019-02-16T19:19:46.591Z,29.63
2019-02-16T19:22:28.900Z,28.97
2019-02-16T19:24:58.720Z,29.37
2019-02-16T19:27:35.981Z,31.83
2019-02-16T19:30:07.081Z,31.67
2019-02-16T19:32:53.246Z,32.27
2019-02-16T19:35:25.849Z,29.67
2019-02-16T19:38:07.672Z,34.67
2019-02-16T19:40:49.711Z,32.47
2019-02-16T19:43:29.902Z,33.23
2019-02-16T19:46:03.757Z,31.60
2019-02-16T19:48:35.008Z,30.70
2019-02-16T19:51:05.610Z,31.57
2019-02-16T19:53:47.646Z,29.63
2019-02-16T19:56:26.700Z,31.20
2019-02-16T19:59:02.612Z,29.67
2019-02-16T20:01:44.161Z,30.83
2019-02-16T20:04:14.309Z,29.10
2019-02-16T20:06:44.121Z,26.67
2019-02-16T20:09:16.684Z,27.27
2019-02-16T20:11:52.317Z,27.13
2019-02-16T20:14:22.081Z,26.50
2019-02-16T20:17:04.145Z,27.27
2019-02-16T20:19:50.653Z,27.63
2019-02-16T20:22:26.366Z,26.43
2019-02-16T20:24:59.081Z,28.03
2019-02-16T20:27:40.124Z,28.33
2019-02-16T20:30:16.641Z,25.90
2019-02-16T20:32:48.204Z,27.27
2019-02-16T20:35:29.869Z,27.67
2019-02-16T20:37:59.674Z,26.07
2019-02-16T20:40:35.553Z,28.13
2019-02-16T20:43:11.422Z,25.37
2019-02-16T20:45:45.490Z,26.90
2019-02-16T20:48:18.022Z,28.47
2019-02-16T20:50:50.838Z,26.30
2019-02-16T20:53:20.673Z,26.97
2019-02-16T20:55:54.265Z,30.53
2019-02-16T20:58:39.377Z,27.90
2019-02-16T21:01:09.160Z,27.80
2019-02-16T21:03:41.657Z,28.47
2019-02-16T21:06:12.469Z,27.33
2019-02-16T21:08:47.963Z,26.40
2019-02-16T21:11:34.335Z,27.03
2019-02-16T21:14:20.307Z,27.33
2019-02-16T21:16:52.996Z,28.07
2019-02-16T21:19:35.027Z,27.43
2019-02-16T21:22:11.646Z,28.70
2019-02-16T21:24:41.427Z,29.20
2019-02-16T21:27:11.205Z,26.97
2019-02-16T21:29:44.077Z,27.13
2019-02-16T21:32:13.904Z,28.13
2019-02-16T21:34:49.398Z,28.80
2019-02-16T21:37:22.199Z,29.23
2019-02-16T21:39:55.063Z,30.00
2019-02-16T21:42:30.954Z,28.13
2019-02-16T21:45:17.117Z,31.10
2019-02-16T21:47:46.914Z,29.93
2019-02-16T21:50:19.654Z,29.57
2019-02-16T21:53:05.714Z,30.93
2019-02-16T21:55:48.081Z,30.67
2019-02-16T21:58:27.091Z,30.13
2019-02-16T22:01:08.882Z,30.43
2019-02-16T22:03:59.875Z,30.07
2019-02-16T22:06:42.347Z,32.83
2019-02-16T22:09:14.221Z,30.70
2019-02-16T22:11:45.501Z,29.23
2019-02-16T22:14:22.486Z,29.90
2019-02-16T22:16:52.124Z,29.13
2019-02-16T22:19:21.983Z,28.87
2019-02-16T22:21:50.143Z,29.40
2019-02-16T22:24:23.904Z,28.20
2019-02-16T22:26:49.632Z,26.97
2019-02-16T22:32:09.046Z,29.70
2019-02-16T22:34:46.578Z,29.87
2019-02-16T22:37:16.550Z,31.43
2019-02-16T22:39:53.565Z,30.77
2019-02-16T22:42:31.636Z,29.60
2019-02-16T22:45:04.211Z,28.53
2019-02-16T22:47:36.850Z,29.63
2019-02-16T22:50:09.871Z,28.77
2019-02-16T22:52:40.663Z,28.47
2019-02-16T22:55:09.725Z,31.83
2019-02-16T22:57:40.531Z,30.37
2019-02-16T23:00:12.361Z,29.87
2019-02-16T23:02:45.926Z,28.73
2019-02-16T23:05:25.881Z,30.13
2019-02-16T23:07:58.582Z,28.07
2019-02-16T23:10:27.287Z,28.07
2019-02-16T23:12:55.627Z,30.47
2019-02-16T23:15:23.841Z,29.13
2019-02-16T23:17:52.906Z,29.13
2019-02-16T23:20:21.060Z,28.20
2019-02-16T23:22:49.214Z,29.23
2019-02-16T23:25:19.916Z,30.13
2019-02-16T23:27:48.068Z,29.20
2019-02-16T23:30:17.883Z,28.77
2019-02-16T23:32:47.276Z,29.10
2019-02-16T23:35:15.430Z,27.87
2019-02-16T23:37:44.574Z,28.30
2019-02-16T23:40:14.371Z,28.03
2019-02-16T23:42:42.546Z,30.35
2019-02-16T23:45:10.689Z,29.13
2019-02-16T23:47:38.863Z,31.13
2019-02-16T23:50:08.638Z,33.13
2019-02-16T23:52:36.780Z,36.50
2019-02-16T23:55:11.604Z,38.50
2019-02-16T23:57:39.758Z,44.97
